createdAt,value
2016-11-02T00:00:39.490Z,0
2016-11-02T00:01:39.503Z,0
2016-11-02T00:02:39.515Z,0
2016-11-02T00:03:39.548Z,0
2016-11-02T00:04:39.559Z,0
2016-11-02T00:05:39.579Z,0
2016-11-02T00:06:39.613Z,0
2016-11-02T00:07:39.609Z,0
2016-11-02T00:08:39.621Z,0
2016-11-02T00:09:39.636Z,0
2016-11-02T00:10:39.644Z,0
2016-11-02T00:11:39.665Z,0
2016-11-02T00:12:39.691Z,0
2016-11-02T00:13:39.691Z,0
2016-11-02T00:14:39.712Z,0
2016-11-02T00:15:39.725Z,0
2016-11-02T00:16:39.739Z,0
2016-11-02T00:17:39.768Z,0
2016-11-02T00:18:39.777Z,0
2016-11-02T00:19:39.782Z,0
2016-11-02T00:20:39.796Z,0
2016-11-02T00:21:39.820Z,0
2016-11-02T00:22:39.829Z,0
2016-11-02T00:23:39.839Z,0
2016-11-02T00:24:39.867Z,0
2016-11-02T00:25:39.882Z,0
2016-11-02T00:26:39.910Z,0
2016-11-02T00:27:39.907Z,0
2016-11-02T00:28:39.932Z,0
2016-11-02T00:29:39.940Z,0
2016-11-02T00:30:39.957Z,0
2016-11-02T00:31:40.040Z,0
2016-11-02T00:32:39.996Z,0
2016-11-02T00:33:39.995Z,0
2016-11-02T00:34:40.052Z,0
2016-11-02T00:35:40.030Z,0
2016-11-02T00:36:40.048Z,0
2016-11-02T00:37:40.058Z,0
2016-11-02T00:38:40.087Z,0
2016-11-02T00:39:40.099Z,0
2016-11-02T00:40:40.121Z,0
2016-11-02T00:41:40.124Z,0
2016-11-02T00:42:40.135Z,0
2016-11-02T00:43:40.158Z,0
2016-11-02T00:44:40.177Z,0
2016-11-02T00:45:40.185Z,0
2016-11-02T00:46:40.207Z,0
2016-11-02T00:47:40.219Z,0
2016-11-02T00:48:40.277Z,0
2016-11-02T00:49:40.258Z,0
2016-11-02T00:50:40.259Z,0
2016-11-02T00:51:40.648Z,0
2016-11-02T00:52:40.304Z,0
2016-11-02T00:53:40.304Z,0
2016-11-02T00:54:40.328Z,0
2016-11-02T00:55:40.346Z,0
2016-11-02T00:56:40.364Z,0
2016-11-02T00:57:40.368Z,0
2016-11-02T00:58:40.380Z,0
2016-11-02T00:59:40.404Z,0
2016-11-02T01:00:40.419Z,0
2016-11-02T01:01:40.426Z,0
2016-11-02T01:02:40.444Z,0
2016-11-02T01:03:40.472Z,0
2016-11-02T01:04:40.477Z,0
2016-11-02T01:05:40.485Z,0
2016-11-02T01:06:40.519Z,0
2016-11-02T01:07:40.525Z,0
2016-11-02T01:08:40.540Z,0
2016-11-02T01:09:40.559Z,0
2016-11-02T01:10:40.574Z,0
2016-11-02T01:11:40.590Z,0
2016-11-02T01:12:40.616Z,0
2016-11-02T01:13:40.612Z,0
2016-11-02T01:14:40.621Z,0
2016-11-02T01:15:40.644Z,0
2016-11-02T01:16:40.672Z,0
2016-11-02T01:17:40.682Z,0
2016-11-02T01:18:40.693Z,0
2016-11-02T01:19:40.710Z,0
2016-11-02T01:20:40.732Z,0
2016-11-02T01:21:40.741Z,0
2016-11-02T01:22:41.071Z,0
2016-11-02T01:23:40.776Z,0
2016-11-02T01:24:40.792Z,0
2016-11-02T01:25:40.796Z,0
2016-11-02T01:26:40.822Z,0
2016-11-02T01:27:40.837Z,0
2016-11-02T01:28:40.848Z,0
2016-11-02T01:29:40.861Z,0
2016-11-02T01:30:40.879Z,0
2016-11-02T01:31:40.896Z,0
2016-11-02T01:32:40.908Z,0
2016-11-02T01:33:40.929Z,0
2016-11-02T01:34:40.946Z,0
2016-11-02T01:35:40.952Z,0
2016-11-02T01:36:40.984Z,0
2016-11-02T01:37:40.978Z,0
2016-11-02T01:38:41.004Z,0
2016-11-02T01:39:41.014Z,0
2016-11-02T01:40:41.043Z,0
2016-11-02T01:41:41.049Z,0
2016-11-02T01:42:41.059Z,0
2016-11-02T01:43:41.084Z,0
2016-11-02T01:44:41.090Z,0
2016-11-02T01:45:41.111Z,0
2016-11-02T01:46:41.137Z,0
2016-11-02T01:47:41.142Z,0
2016-11-02T01:48:41.158Z,0
2016-11-02T01:49:41.160Z,0
2016-11-02T01:50:41.198Z,0
2016-11-02T01:51:41.208Z,0
2016-11-02T01:52:41.219Z,0
2016-11-02T01:53:41.239Z,0
2016-11-02T01:54:41.255Z,0
2016-11-02T01:55:41.277Z,0
2016-11-02T01:56:41.274Z,0
2016-11-02T01:57:41.295Z,0
2016-11-02T01:58:41.317Z,0
2016-11-02T01:59:41.319Z,0
2016-11-02T02:00:41.328Z,0
2016-11-02T02:01:41.353Z,0
2016-11-02T02:02:41.371Z,0
2016-11-02T02:03:41.382Z,0
2016-11-02T02:04:41.407Z,0
2016-11-02T02:05:41.424Z,0
2016-11-02T02:06:41.438Z,0
2016-11-02T02:07:41.448Z,0
2016-11-02T02:08:41.463Z,0
2016-11-02T02:09:41.469Z,0
2016-11-02T02:10:41.491Z,0
2016-11-02T02:11:41.833Z,0
2016-11-02T02:12:41.532Z,0
2016-11-02T02:13:41.536Z,0
2016-11-02T02:14:41.567Z,0
2016-11-02T02:15:41.567Z,0
2016-11-02T02:16:41.627Z,0
2016-11-02T02:17:41.614Z,0
2016-11-02T02:18:41.611Z,0
2016-11-02T02:19:41.716Z,0
2016-11-02T02:20:41.658Z,0
2016-11-02T02:21:41.668Z,0
2016-11-02T02:22:41.681Z,0
2016-11-02T02:23:41.691Z,0
2016-11-02T02:24:41.715Z,0
2016-11-02T02:25:41.759Z,0
2016-11-02T02:26:41.776Z,0
2016-11-02T02:27:41.754Z,0
2016-11-02T02:28:41.779Z,0
2016-11-02T02:29:41.787Z,0
2016-11-02T02:30:41.804Z,0
2016-11-02T02:31:41.854Z,0
2016-11-02T02:32:41.831Z,0
2016-11-02T02:33:41.856Z,0
2016-11-02T02:34:41.878Z,0
2016-11-02T02:35:41.867Z,0
2016-11-02T02:36:41.891Z,0
2016-11-02T02:37:41.913Z,0
2016-11-02T02:38:41.934Z,0
2016-11-02T02:39:41.939Z,0
2016-11-02T02:40:41.976Z,0
2016-11-02T02:41:41.966Z,0
2016-11-02T02:42:41.991Z,0
2016-11-02T02:43:42.011Z,0
2016-11-02T02:44:42.014Z,0
2016-11-02T02:45:42.033Z,0
2016-11-02T02:46:42.135Z,0
2016-11-02T02:47:42.063Z,0
2016-11-02T02:48:42.086Z,0
2016-11-02T02:49:42.094Z,0
2016-11-02T02:50:42.125Z,0
2016-11-02T02:51:42.136Z,0
2016-11-02T02:52:42.135Z,0
2016-11-02T02:53:42.152Z,0
2016-11-02T02:54:42.196Z,0
2016-11-02T02:55:42.183Z,0
2016-11-02T02:56:42.520Z,0
2016-11-02T02:57:42.212Z,0
2016-11-02T02:58:42.237Z,0
2016-11-02T02:59:42.249Z,0
2016-11-02T03:00:42.279Z,0
2016-11-02T03:01:42.285Z,0
2016-11-02T03:02:42.296Z,0
2016-11-02T03:03:42.314Z,0
2016-11-02T03:04:42.327Z,0
2016-11-02T03:05:42.338Z,0
2016-11-02T03:06:42.361Z,0
2016-11-02T03:07:42.363Z,0
2016-11-02T03:08:42.387Z,0
2016-11-02T03:09:42.400Z,0
2016-11-02T03:10:42.399Z,0
2016-11-02T03:11:42.435Z,0
2016-11-02T03:12:42.444Z,0
2016-11-02T03:13:42.466Z,0
2016-11-02T03:14:42.483Z,0
2016-11-02T03:15:42.501Z,0
2016-11-02T03:16:42.514Z,0
2016-11-02T03:17:42.533Z,0
2016-11-02T03:18:42.545Z,0
2016-11-02T03:19:42.541Z,0
2016-11-02T03:20:42.574Z,0
2016-11-02T03:21:42.579Z,0
2016-11-02T03:22:42.601Z,0
2016-11-02T03:23:42.680Z,0
2016-11-02T03:24:42.637Z,0
2016-11-02T03:25:42.651Z,0
2016-11-02T03:26:42.668Z,0
2016-11-02T03:27:42.673Z,0
2016-11-02T03:28:42.702Z,0
2016-11-02T03:29:42.699Z,0
2016-11-02T03:30:42.733Z,0
2016-11-02T03:31:42.735Z,0
2016-11-02T03:32:42.747Z,0
2016-11-02T03:33:42.761Z,0
2016-11-02T03:34:42.779Z,0
2016-11-02T03:35:42.789Z,0
2016-11-02T03:36:42.818Z,0
2016-11-02T03:37:42.820Z,0
2016-11-02T03:38:42.843Z,0
2016-11-02T03:39:42.870Z,0
2016-11-02T03:40:42.872Z,0
2016-11-02T03:41:42.876Z,0
2016-11-02T03:42:42.910Z,0
2016-11-02T03:43:42.908Z,0
2016-11-02T03:44:42.943Z,0
2016-11-02T03:45:42.943Z,0
2016-11-02T03:46:42.963Z,0
2016-11-02T03:47:42.981Z,0
2016-11-02T03:48:43.321Z,0
2016-11-02T03:49:43.018Z,0
2016-11-02T03:50:43.020Z,0
2016-11-02T03:51:43.071Z,0
2016-11-02T03:52:43.052Z,0
2016-11-02T03:53:43.142Z,0
2016-11-02T03:54:43.095Z,0
2016-11-02T03:55:43.104Z,0
2016-11-02T03:56:43.132Z,0
2016-11-02T03:57:43.128Z,0
2016-11-02T03:58:43.149Z,0
2016-11-02T03:59:43.164Z,0
2016-11-02T04:01:43.183Z,0
2016-11-02T04:02:43.540Z,0
2016-11-02T04:03:43.211Z,0
2016-11-02T04:04:43.242Z,0
2016-11-02T04:05:43.253Z,0
2016-11-02T04:06:43.268Z,0
2016-11-02T04:07:43.269Z,0
2016-11-02T04:08:43.297Z,0
2016-11-02T04:09:43.317Z,0
2016-11-02T04:10:43.328Z,0
2016-11-02T04:11:43.353Z,0
2016-11-02T04:12:43.398Z,0
2016-11-02T04:13:43.376Z,0
2016-11-02T04:14:43.392Z,0
2016-11-02T04:15:43.393Z,0
2016-11-02T04:16:43.420Z,0
2016-11-02T04:17:43.434Z,0
2016-11-02T04:18:43.454Z,0
2016-11-02T04:19:43.459Z,0
2016-11-02T04:20:43.470Z,0
2016-11-02T04:21:43.494Z,0
2016-11-02T04:22:43.507Z,0
2016-11-02T04:23:43.519Z,0
2016-11-02T04:24:43.545Z,0
2016-11-02T04:25:43.555Z,0
2016-11-02T04:26:43.572Z,0
2016-11-02T04:27:43.624Z,0
2016-11-02T04:28:43.593Z,0
2016-11-02T04:29:43.608Z,0
2016-11-02T04:30:43.624Z,0
2016-11-02T04:31:43.645Z,0
2016-11-02T04:32:43.650Z,0
2016-11-02T04:33:43.674Z,0
2016-11-02T04:34:43.693Z,0
2016-11-02T04:35:43.701Z,0
2016-11-02T04:36:43.718Z,0
2016-11-02T04:37:43.734Z,0
2016-11-02T04:38:43.832Z,0
2016-11-02T04:39:43.771Z,0
2016-11-02T04:40:43.778Z,0
2016-11-02T04:41:43.810Z,0
2016-11-02T04:42:43.807Z,0
2016-11-02T04:43:43.828Z,0
2016-11-02T04:44:43.829Z,0
2016-11-02T04:45:43.862Z,0
2016-11-02T04:46:43.866Z,0
2016-11-02T04:47:43.892Z,0
2016-11-02T04:48:43.898Z,0
2016-11-02T04:49:43.904Z,0
2016-11-02T04:50:43.938Z,0
2016-11-02T04:51:43.952Z,0
2016-11-02T04:52:43.958Z,0
2016-11-02T04:53:43.982Z,0
2016-11-02T04:54:43.982Z,0
2016-11-02T04:55:44.000Z,0
2016-11-02T04:56:44.027Z,0
2016-11-02T04:57:44.033Z,0
2016-11-02T04:58:44.049Z,0
2016-11-02T04:59:44.087Z,0
2016-11-02T05:00:44.084Z,0
2016-11-02T05:01:44.099Z,0
2016-11-02T05:02:44.107Z,0
2016-11-02T05:03:44.118Z,0
2016-11-02T05:04:44.127Z,0
2016-11-02T05:05:44.159Z,0
2016-11-02T05:06:44.209Z,0
2016-11-02T05:07:44.178Z,0
2016-11-02T05:08:44.203Z,0
2016-11-02T05:09:44.229Z,0
2016-11-02T05:10:44.234Z,0
2016-11-02T05:11:44.573Z,0
2016-11-02T05:12:44.257Z,0
2016-11-02T05:13:44.269Z,0
2016-11-02T05:14:44.289Z,0
2016-11-02T05:15:44.310Z,0
2016-11-02T05:16:44.638Z,0
2016-11-02T05:17:44.350Z,0
2016-11-02T05:18:44.372Z,0
2016-11-02T05:19:44.363Z,0
2016-11-02T05:20:44.383Z,0
2016-11-02T05:21:44.406Z,0
2016-11-02T05:22:44.417Z,0
2016-11-02T05:23:44.430Z,0
2016-11-02T05:24:44.439Z,0
2016-11-02T05:25:44.458Z,0
2016-11-02T05:26:44.790Z,0
2016-11-02T05:27:44.572Z,0
2016-11-02T05:28:44.506Z,0
2016-11-02T05:29:44.516Z,0
2016-11-02T05:30:44.533Z,0
2016-11-02T05:31:44.542Z,0
2016-11-02T05:32:44.575Z,0
2016-11-02T05:33:44.616Z,0
2016-11-02T05:34:44.587Z,0
2016-11-02T05:35:44.602Z,0
2016-11-02T05:36:44.627Z,0
2016-11-02T05:37:44.638Z,0
2016-11-02T05:38:44.648Z,0
2016-11-02T05:39:44.661Z,0
2016-11-02T05:40:44.689Z,0
2016-11-02T05:41:44.690Z,0
2016-11-02T05:42:44.709Z,0
2016-11-02T05:43:44.724Z,0
2016-11-02T05:44:44.747Z,0
2016-11-02T05:45:44.752Z,0
2016-11-02T05:46:44.757Z,0
2016-11-02T05:47:44.778Z,0
2016-11-02T05:48:44.796Z,0
2016-11-02T05:49:44.811Z,0
2016-11-02T05:50:44.875Z,0
2016-11-02T05:51:44.840Z,0
2016-11-02T05:52:44.884Z,4
2016-11-02T05:53:44.867Z,4
2016-11-02T05:54:44.959Z,0
2016-11-02T05:55:44.907Z,4
2016-11-02T05:56:44.958Z,4
2016-11-02T05:57:44.931Z,4
2016-11-02T05:58:44.990Z,4
2016-11-02T05:59:44.965Z,4
2016-11-02T06:00:44.965Z,8
2016-11-02T06:01:45.003Z,8
2016-11-02T06:02:45.341Z,8
2016-11-02T06:03:45.019Z,12
2016-11-02T06:04:45.040Z,12
2016-11-02T06:05:45.058Z,16
2016-11-02T06:06:45.075Z,20
2016-11-02T06:07:45.076Z,20
2016-11-02T06:08:45.129Z,24
2016-11-02T06:09:45.130Z,28
2016-11-02T06:10:45.131Z,36
2016-11-02T06:11:45.141Z,40
2016-11-02T06:12:45.208Z,56
2016-11-02T06:13:45.170Z,60
2016-11-02T06:14:45.179Z,64
2016-11-02T06:15:45.196Z,68
2016-11-02T06:16:45.543Z,76
2016-11-02T06:17:45.224Z,84
2016-11-02T06:18:45.608Z,80
2016-11-02T06:19:45.266Z,88
2016-11-02T06:20:45.594Z,92
2016-11-02T06:21:45.281Z,108
2016-11-02T06:22:45.343Z,120
2016-11-02T06:23:45.315Z,108
2016-11-02T06:24:45.398Z,124
2016-11-02T06:25:45.352Z,132
2016-11-02T06:26:45.364Z,124
2016-11-02T06:27:45.373Z,140
2016-11-02T06:28:45.406Z,164
2016-11-02T06:29:45.402Z,172
2016-11-02T06:30:45.774Z,172
2016-11-02T06:31:45.437Z,180
2016-11-02T06:32:45.463Z,184
2016-11-02T06:33:45.471Z,188
2016-11-02T06:34:45.804Z,196
2016-11-02T06:35:45.497Z,212
2016-11-02T06:36:45.515Z,236
2016-11-02T06:37:45.523Z,232
2016-11-02T06:38:45.564Z,224
2016-11-02T06:39:45.553Z,244
2016-11-02T06:40:45.913Z,248
2016-11-02T06:41:45.594Z,264
2016-11-02T06:42:45.607Z,256
2016-11-02T06:43:45.616Z,252
2016-11-02T06:44:45.635Z,276
2016-11-02T06:45:45.639Z,296
2016-11-02T06:46:45.667Z,244
2016-11-02T06:47:45.676Z,240
2016-11-02T06:48:45.694Z,252
2016-11-02T06:49:45.705Z,296
2016-11-02T06:50:45.738Z,332
2016-11-02T06:51:45.729Z,388
2016-11-02T06:52:45.754Z,416
2016-11-02T06:53:45.771Z,432
2016-11-02T06:54:45.791Z,432
2016-11-02T06:55:45.796Z,480
2016-11-02T06:56:45.804Z,564
2016-11-02T06:57:45.872Z,648
2016-11-02T06:58:45.834Z,708
2016-11-02T06:59:45.863Z,872
2016-11-02T07:00:45.878Z,940
2016-11-02T07:01:45.884Z,1028
2016-11-02T07:02:45.977Z,1108
2016-11-02T07:03:45.921Z,1176
2016-11-02T07:04:45.932Z,1260
2016-11-02T07:05:45.954Z,1292
2016-11-02T07:06:45.967Z,1312
2016-11-02T07:07:45.984Z,1288
2016-11-02T07:08:45.995Z,1292
2016-11-02T07:09:45.998Z,1224
2016-11-02T07:10:46.007Z,1148
2016-11-02T07:11:46.051Z,1072
2016-11-02T07:12:46.092Z,1008
2016-11-02T07:13:46.069Z,884
2016-11-02T07:14:46.105Z,836
2016-11-02T07:15:46.095Z,792
2016-11-02T07:16:46.136Z,680
2016-11-02T07:17:46.123Z,588
2016-11-02T07:18:46.162Z,548
2016-11-02T07:19:46.163Z,716
2016-11-02T07:20:46.483Z,960
2016-11-02T07:21:46.192Z,1132
2016-11-02T07:22:46.522Z,1156
2016-11-02T07:23:46.213Z,1396
2016-11-02T07:24:46.237Z,1528
2016-11-02T07:25:46.233Z,1560
2016-11-02T07:26:46.279Z,1432
2016-11-02T07:27:46.274Z,1484
2016-11-02T07:28:46.287Z,1444
2016-11-02T07:29:46.303Z,1240
2016-11-02T07:30:46.333Z,1040
2016-11-02T07:31:46.327Z,892
2016-11-02T07:32:46.357Z,860
2016-11-02T07:33:46.369Z,832
2016-11-02T07:34:46.388Z,716
2016-11-02T07:35:46.394Z,636
2016-11-02T07:36:46.412Z,552
2016-11-02T07:37:46.440Z,516
2016-11-02T07:38:46.456Z,568
2016-11-02T07:39:46.463Z,656
2016-11-02T07:40:46.483Z,640
2016-11-02T07:41:46.490Z,572
2016-11-02T07:42:46.864Z,600
2016-11-02T07:43:46.529Z,720
2016-11-02T07:44:46.536Z,928
2016-11-02T07:45:46.559Z,1364
2016-11-02T07:46:46.569Z,1676
2016-11-02T07:47:46.581Z,1844
2016-11-02T07:48:46.599Z,2240
2016-11-02T07:49:46.615Z,2572
2016-11-02T07:50:46.629Z,2576
2016-11-02T07:51:46.635Z,2584
2016-11-02T07:52:46.662Z,2572
2016-11-02T07:53:46.668Z,2660
2016-11-02T07:54:47.043Z,2596
2016-11-02T07:55:46.692Z,2524
2016-11-02T07:56:46.718Z,2512
2016-11-02T07:57:46.726Z,2412
2016-11-02T07:58:46.744Z,2256
2016-11-02T07:59:46.781Z,2120
2016-11-02T08:00:46.787Z,2016
2016-11-02T08:01:46.790Z,2000
2016-11-02T08:02:46.817Z,1944
2016-11-02T08:03:46.817Z,1904
2016-11-02T08:04:46.834Z,1784
2016-11-02T08:05:46.899Z,1660
2016-11-02T08:06:46.916Z,1600
2016-11-02T08:07:46.880Z,1504
2016-11-02T08:08:46.890Z,1328
2016-11-02T08:09:46.905Z,1272
2016-11-02T08:10:46.937Z,1504
2016-11-02T08:11:46.945Z,1836
2016-11-02T08:12:46.955Z,1980
2016-11-02T08:13:46.967Z,1984
2016-11-02T08:14:46.987Z,1920
2016-11-02T08:15:47.011Z,1788
2016-11-02T08:16:47.040Z,1604
2016-11-02T08:17:47.034Z,1572
2016-11-02T08:18:47.060Z,1644
2016-11-02T08:19:47.061Z,1720
2016-11-02T08:20:47.085Z,1760
2016-11-02T08:21:47.096Z,1640
2016-11-02T08:22:47.115Z,1624
2016-11-02T08:23:47.127Z,1528
2016-11-02T08:24:47.137Z,1348
2016-11-02T08:25:47.154Z,1120
2016-11-02T08:26:47.180Z,1044
2016-11-02T08:27:47.185Z,976
2016-11-02T08:28:47.206Z,988
2016-11-02T08:29:47.210Z,1012
2016-11-02T08:30:47.243Z,904
2016-11-02T08:31:47.237Z,864
2016-11-02T08:32:47.280Z,924
2016-11-02T08:33:47.284Z,952
2016-11-02T08:34:47.297Z,1060
2016-11-02T08:35:47.307Z,1044
2016-11-02T08:36:47.328Z,960
2016-11-02T08:37:47.336Z,848
2016-11-02T08:38:47.362Z,812
2016-11-02T08:39:47.364Z,920
2016-11-02T08:40:47.742Z,1132
2016-11-02T08:41:47.405Z,1468
2016-11-02T08:42:47.424Z,1828
2016-11-02T08:43:47.766Z,2064
2016-11-02T08:44:47.456Z,2236
2016-11-02T08:45:47.463Z,2380
2016-11-02T08:46:47.485Z,2468
2016-11-02T08:47:47.490Z,2524
2016-11-02T08:48:47.506Z,2472
2016-11-02T08:49:47.516Z,2464
2016-11-02T08:50:47.541Z,2696
2016-11-02T08:51:47.558Z,3104
2016-11-02T08:52:47.576Z,3532
2016-11-02T08:53:47.611Z,3796
2016-11-02T08:54:47.675Z,4020
2016-11-02T08:55:47.669Z,4228
2016-11-02T08:56:47.630Z,4224
2016-11-02T08:57:47.694Z,4372
2016-11-02T08:58:47.692Z,4600
2016-11-02T08:59:47.692Z,4608
2016-11-02T09:00:47.706Z,4548
2016-11-02T09:01:47.714Z,4732
2016-11-02T09:02:47.724Z,4680
2016-11-02T09:03:47.781Z,5184
2016-11-02T09:04:47.790Z,5180
2016-11-02T09:05:47.806Z,4512
2016-11-02T09:06:47.854Z,4480
2016-11-02T09:07:47.848Z,4636
2016-11-02T09:08:47.868Z,4552
2016-11-02T09:09:47.882Z,4456
2016-11-02T09:10:47.870Z,4432
2016-11-02T09:11:47.860Z,4488
2016-11-02T09:12:47.888Z,4360
2016-11-02T09:13:47.895Z,4588
2016-11-02T09:14:47.907Z,4412
2016-11-02T09:15:47.918Z,4420
2016-11-02T09:16:47.936Z,4444
2016-11-02T09:17:47.957Z,4376
2016-11-02T09:18:48.298Z,4180
2016-11-02T09:19:47.983Z,4048
2016-11-02T09:20:48.013Z,3772
2016-11-02T09:21:48.024Z,3548
2016-11-02T09:22:48.038Z,3232
2016-11-02T09:23:48.042Z,3268
2016-11-02T09:24:48.074Z,3444
2016-11-02T09:25:48.087Z,3276
2016-11-02T09:26:48.094Z,3128
2016-11-02T09:27:48.103Z,3148
2016-11-02T09:28:48.136Z,3332
2016-11-02T09:29:48.147Z,3124
2016-11-02T09:30:48.229Z,2856
2016-11-02T09:31:48.533Z,2584
2016-11-02T09:32:48.187Z,2416
2016-11-02T09:33:48.206Z,2332
2016-11-02T09:34:48.223Z,2340
2016-11-02T09:35:48.231Z,2588
2016-11-02T09:36:48.265Z,2848
2016-11-02T09:37:48.265Z,2836
2016-11-02T09:38:48.292Z,2560
2016-11-02T09:39:48.286Z,2440
2016-11-02T09:40:48.315Z,2520
2016-11-02T09:41:48.336Z,2744
2016-11-02T09:42:48.348Z,2896
2016-11-02T09:43:48.378Z,2872
2016-11-02T09:44:48.376Z,2760
2016-11-02T09:45:48.388Z,2632
2016-11-02T09:46:48.403Z,2560
2016-11-02T09:47:48.418Z,2656
2016-11-02T09:48:48.499Z,2860
2016-11-02T09:49:48.458Z,3180
2016-11-02T09:50:48.476Z,3032
2016-11-02T09:51:48.481Z,2984
2016-11-02T09:52:48.507Z,2856
2016-11-02T09:53:48.539Z,2972
2016-11-02T09:54:48.551Z,3072
2016-11-02T09:55:48.547Z,2996
2016-11-02T09:56:48.574Z,3208
2016-11-02T09:57:48.563Z,2944
2016-11-02T09:58:48.639Z,3556
2016-11-02T09:59:48.620Z,5436
2016-11-02T10:00:48.627Z,5608
2016-11-02T10:01:48.654Z,5604
2016-11-02T10:02:48.652Z,5880
2016-11-02T10:03:48.666Z,6036
2016-11-02T10:04:48.685Z,6008
2016-11-02T10:05:48.715Z,5800
2016-11-02T10:06:48.718Z,4860
2016-11-02T10:07:48.723Z,4636
2016-11-02T10:08:48.773Z,3980
2016-11-02T10:09:48.774Z,4304
2016-11-02T10:10:48.774Z,3524
2016-11-02T10:11:48.801Z,3184
2016-11-02T10:12:48.805Z,2636
2016-11-02T10:13:48.827Z,2144
2016-11-02T10:14:48.848Z,1896
2016-11-02T10:15:48.854Z,1928
2016-11-02T10:16:48.871Z,1900
2016-11-02T10:17:48.893Z,1808
2016-11-02T10:18:48.907Z,2000
2016-11-02T10:19:48.928Z,2112
2016-11-02T10:20:49.087Z,2320
2016-11-02T10:21:48.966Z,2596
2016-11-02T10:22:48.973Z,2732
2016-11-02T10:23:48.982Z,2968
2016-11-02T10:24:49.009Z,3296
2016-11-02T10:25:49.010Z,3308
2016-11-02T10:26:49.035Z,2992
2016-11-02T10:27:49.044Z,2540
2016-11-02T10:28:49.103Z,2348
2016-11-02T10:29:49.090Z,2576
2016-11-02T10:30:49.111Z,2752
2016-11-02T10:31:49.118Z,2920
2016-11-02T10:32:49.122Z,2964
2016-11-02T10:33:49.139Z,2988
2016-11-02T10:34:49.188Z,2816
2016-11-02T10:35:49.182Z,2608
2016-11-02T10:36:49.200Z,2600
2016-11-02T10:37:49.214Z,2540
2016-11-02T10:38:49.218Z,2628
2016-11-02T10:39:49.248Z,2960
2016-11-02T10:40:49.281Z,2800
2016-11-02T10:41:49.337Z,2192
2016-11-02T10:42:49.299Z,1856
2016-11-02T10:43:49.303Z,1800
2016-11-02T10:44:49.324Z,1988
2016-11-02T10:45:49.331Z,2120
2016-11-02T10:46:49.367Z,2220
2016-11-02T10:47:49.368Z,2404
2016-11-02T10:48:49.380Z,2468
2016-11-02T10:49:49.405Z,2296
2016-11-02T10:50:49.424Z,2172
2016-11-02T10:51:49.424Z,1884
2016-11-02T10:52:49.438Z,1916
2016-11-02T10:53:49.460Z,2112
2016-11-02T10:54:49.477Z,1956
2016-11-02T10:55:49.481Z,1576
2016-11-02T10:56:49.499Z,1428
2016-11-02T10:57:49.570Z,1444
2016-11-02T10:58:49.571Z,1436
2016-11-02T10:59:49.572Z,1348
2016-11-02T11:00:49.607Z,1256
2016-11-02T11:01:49.632Z,1356
2016-11-02T11:02:49.661Z,1560
2016-11-02T11:03:49.660Z,1880
2016-11-02T11:04:49.627Z,2568
2016-11-02T11:05:49.674Z,3608
2016-11-02T11:06:49.678Z,4240
2016-11-02T11:07:49.687Z,4496
2016-11-02T11:08:49.691Z,4548
2016-11-02T11:09:49.750Z,4272
2016-11-02T11:10:49.716Z,3792
2016-11-02T11:11:49.744Z,3536
2016-11-02T11:12:49.753Z,3520
2016-11-02T11:13:49.779Z,3904
2016-11-02T11:14:49.782Z,4332
2016-11-02T11:15:49.803Z,4552
2016-11-02T11:16:49.823Z,4228
2016-11-02T11:17:49.837Z,4392
2016-11-02T11:18:49.839Z,4624
2016-11-02T11:19:49.864Z,4640
2016-11-02T11:20:49.878Z,4608
2016-11-02T11:21:49.894Z,4776
2016-11-02T11:22:49.906Z,5096
2016-11-02T11:23:49.976Z,4920
2016-11-02T11:24:49.975Z,5268
2016-11-02T11:25:49.962Z,4928
2016-11-02T11:26:49.983Z,4776
2016-11-02T11:27:49.992Z,4824
2016-11-02T11:28:50.008Z,4312
2016-11-02T11:29:50.056Z,3804
2016-11-02T11:30:50.037Z,3692
2016-11-02T11:31:50.094Z,3896
2016-11-02T11:32:50.072Z,3952
2016-11-02T11:33:50.094Z,3984
2016-11-02T11:34:50.107Z,4280
2016-11-02T11:35:50.161Z,3912
2016-11-02T11:36:50.217Z,3324
2016-11-02T11:37:50.176Z,2988
2016-11-02T11:38:50.173Z,3160
2016-11-02T11:39:50.215Z,3444
2016-11-02T11:40:50.244Z,3332
2016-11-02T11:41:50.270Z,3196
2016-11-02T11:42:50.292Z,3048
2016-11-02T11:43:50.283Z,2808
2016-11-02T11:44:50.260Z,2584
2016-11-02T11:45:50.278Z,2320
2016-11-02T11:46:50.368Z,2040
2016-11-02T11:47:50.302Z,1748
2016-11-02T11:48:50.335Z,1668
2016-11-02T11:49:50.337Z,1812
2016-11-02T11:50:50.404Z,2216
2016-11-02T11:51:50.366Z,2936
2016-11-02T11:52:50.386Z,3124
2016-11-02T11:53:50.409Z,3016
2016-11-02T11:54:50.422Z,2764
2016-11-02T11:55:50.434Z,1800
2016-11-02T11:56:50.466Z,1280
2016-11-02T11:57:50.459Z,1216
2016-11-02T11:58:50.489Z,1404
2016-11-02T11:59:50.506Z,1844
2016-11-02T12:00:50.531Z,2428
2016-11-02T12:01:50.536Z,2440
2016-11-02T12:02:50.544Z,2044
2016-11-02T12:03:50.554Z,1848
2016-11-02T12:04:50.591Z,1720
2016-11-02T12:05:50.599Z,1744
2016-11-02T12:06:50.620Z,1668
2016-11-02T12:07:50.634Z,1592
2016-11-02T12:08:50.643Z,1940
2016-11-02T12:09:50.661Z,2760
2016-11-02T12:10:50.673Z,3040
2016-11-02T12:11:50.694Z,3152
2016-11-02T12:12:50.703Z,3064
2016-11-02T12:13:50.799Z,4164
2016-11-02T12:14:50.747Z,5368
2016-11-02T12:15:50.792Z,5352
2016-11-02T12:16:50.773Z,5168
2016-11-02T12:17:50.788Z,5304
2016-11-02T12:18:50.804Z,5216
2016-11-02T12:19:50.896Z,4976
2016-11-02T12:20:50.839Z,4844
2016-11-02T12:21:50.854Z,4568
2016-11-02T12:22:50.871Z,3908
2016-11-02T12:23:50.884Z,3440
2016-11-02T12:24:50.906Z,2840
2016-11-02T12:25:50.926Z,2544
2016-11-02T12:26:50.963Z,2372
2016-11-02T12:27:50.975Z,2276
2016-11-02T12:28:50.966Z,2104
2016-11-02T12:29:50.986Z,1836
2016-11-02T12:30:50.999Z,1700
2016-11-02T12:31:51.016Z,2120
2016-11-02T12:32:51.029Z,2924
2016-11-02T12:33:51.047Z,3164
2016-11-02T12:34:51.130Z,2904
2016-11-02T12:35:51.076Z,2836
2016-11-02T12:36:51.088Z,2860
2016-11-02T12:37:51.114Z,2824
2016-11-02T12:38:51.121Z,2892
2016-11-02T12:39:51.148Z,2876
2016-11-02T12:40:51.154Z,2776
2016-11-02T12:41:51.169Z,2852
2016-11-02T12:42:51.183Z,3036
2016-11-02T12:43:51.201Z,3220
2016-11-02T12:44:51.217Z,3596
2016-11-02T12:45:51.225Z,4232
2016-11-02T12:46:51.251Z,4032
2016-11-02T12:47:51.268Z,4092
2016-11-02T12:48:51.284Z,4684
2016-11-02T12:49:51.295Z,4372
2016-11-02T12:50:51.303Z,4504
2016-11-02T12:51:51.390Z,4144
2016-11-02T12:52:51.350Z,4428
2016-11-02T12:53:51.366Z,3024
2016-11-02T12:54:51.387Z,2712
2016-11-02T12:55:51.384Z,2712
2016-11-02T12:56:51.402Z,2812
2016-11-02T12:57:51.413Z,2828
2016-11-02T12:58:51.436Z,2640
2016-11-02T12:59:51.443Z,2264
2016-11-02T13:00:51.479Z,2364
2016-11-02T13:01:51.490Z,2136
2016-11-02T13:02:51.506Z,1820
2016-11-02T13:03:51.515Z,1556
2016-11-02T13:04:51.532Z,1304
2016-11-02T13:05:51.548Z,1132
2016-11-02T13:06:51.574Z,1272
2016-11-02T13:07:51.595Z,1620
2016-11-02T13:08:51.611Z,1916
2016-11-02T13:09:51.609Z,2012
2016-11-02T13:10:51.632Z,2208
2016-11-02T13:11:51.665Z,2492
2016-11-02T13:12:51.675Z,2820
2016-11-02T13:13:51.680Z,3336
2016-11-02T13:14:51.693Z,3648
2016-11-02T13:15:51.724Z,3692
2016-11-02T13:16:51.738Z,3620
2016-11-02T13:17:51.748Z,3544
2016-11-02T13:18:51.758Z,3416
2016-11-02T13:19:51.857Z,3168
2016-11-02T13:20:51.786Z,2904
2016-11-02T13:21:51.859Z,2724
2016-11-02T13:22:51.876Z,2516
2016-11-02T13:23:51.889Z,2340
2016-11-02T13:24:51.855Z,2152
2016-11-02T13:25:51.897Z,2184
2016-11-02T13:26:52.259Z,2256
2016-11-02T13:27:51.901Z,2204
2016-11-02T13:28:51.914Z,2040
2016-11-02T13:29:51.929Z,1860
2016-11-02T13:30:51.988Z,1928
2016-11-02T13:31:52.009Z,2352
2016-11-02T13:32:52.013Z,3228
2016-11-02T13:33:52.053Z,4224
2016-11-02T13:34:52.011Z,4852
2016-11-02T13:35:52.075Z,4996
2016-11-02T13:36:52.095Z,4812
2016-11-02T13:37:52.106Z,4324
2016-11-02T13:38:52.124Z,3788
2016-11-02T13:39:52.088Z,3592
2016-11-02T13:40:52.118Z,3244
2016-11-02T13:41:52.142Z,2976
2016-11-02T13:42:52.139Z,2708
2016-11-02T13:43:52.165Z,2428
2016-11-02T13:44:52.213Z,2532
2016-11-02T13:45:52.191Z,3052
2016-11-02T13:46:52.251Z,2508
2016-11-02T13:47:52.267Z,2508
2016-11-02T13:48:52.281Z,2876
2016-11-02T13:49:52.313Z,2896
2016-11-02T13:50:52.310Z,3040
2016-11-02T13:51:52.323Z,3012
2016-11-02T13:52:52.341Z,2960
2016-11-02T13:53:52.318Z,2404
2016-11-02T13:54:52.333Z,1920
2016-11-02T13:55:52.354Z,1620
2016-11-02T13:56:52.377Z,1456
2016-11-02T13:57:52.382Z,1316
2016-11-02T13:58:52.392Z,1296
2016-11-02T13:59:52.411Z,1316